Time;durP1;ratioP1;P1;durP2;ratioP2;P2;SDS_P1;SDS_P2;PMS_P1;PMS_P2;Temp;Humidity;BMP_temperature;BMP_pressure;BME280_temperature;BME280_humidity;BME280_pressure;Samples;Min_cycle;Max_cycle;Signal;HPM_P1;HPM_P2
2022/09/25 00:01:08;;;;;;;;;2.00;2.00;;;;;14.55;72.53;101294.28;5093305;27;49557;-77
2022/09/25 00:03:33;;;;;;;;;2.00;2.00;;;;;14.52;72.69;101307.44;5093009;27;50645;-79
2022/09/25 00:06:01;;;;;;;;;5.00;3.25;;;;;14.51;73.23;101298.63;5092799;27;50014;-78
2022/09/25 00:08:27;;;;;;;;;3.00;1.25;;;;;14.52;73.06;101303.06;5074906;27;49763;-76
2022/09/25 00:10:52;;;;;;;;;4.00;4.00;;;;;14.48;73.33;101298.59;5074960;27;49768;-80
2022/09/25 00:13:19;;;;;;;;;4.75;4.00;;;;;14.49;73.13;101308.31;5092286;27;66811;-78
2022/09/25 00:15:51;;;;;;;;;3.75;3.00;;;;;14.44;73.20;101309.94;5092835;27;49852;-72
2022/09/25 00:19:48;;;;;;;;;3.75;2.00;;;;;14.35;73.15;101298.38;5092929;27;49891;-74
2022/09/25 00:21:03;;;;;;;;;3.75;3.75;;;;;14.40;73.35;101312.53;5105750;27;49782;-75
2022/09/25 00:23:28;;;;;;;;;2.25;2.00;;;;;14.32;73.41;101299.22;5112582;27;49674;-75
2022/09/25 00:25:55;;;;;;;;;1.50;1.50;;;;;14.28;73.57;101298.31;5112755;27;49920;-76
2022/09/25 00:28:20;;;;;;;;;3.00;3.00;;;;;14.21;73.49;101300.81;5112413;27;49610;-73
2022/09/25 00:30:45;;;;;;;;;3.00;3.00;;;;;14.26;73.20;101312.31;5112792;27;49725;-75
2022/09/25 00:33:11;;;;;;;;;3.00;3.00;;;;;14.26;73.55;101321.13;5110986;27;52888;-76
2022/09/25 00:35:36;;;;;;;;;4.25;4.25;;;;;14.29;73.56;101322.97;5112003;27;49798;-76
2022/09/25 00:38:01;;;;;;;;;3.50;3.25;;;;;14.30;73.49;101322.97;5111653;27;59211;-74
2022/09/25 00:40:26;;;;;;;;;4.50;3.75;;;;;14.25;73.23;101306.16;5110997;27;50198;-75
2022/09/25 00:42:52;;;;;;;;;4.00;3.25;;;;;14.25;73.61;101319.38;5111706;27;59277;-70
2022/09/25 00:45:19;;;;;;;;;5.75;4.25;;;;;14.16;73.60;101305.13;5110836;27;49638;-70
2022/09/25 00:48:04;;;;;;;;;4.75;3.25;;;;;14.21;74.00;101321.94;5112100;27;49949;-70
2022/09/25 00:50:42;;;;;;;;;2.75;2.75;;;;;14.23;74.06;101314.94;5112157;27;49848;-71
2022/09/25 00:53:14;;;;;;;;;3.25;2.50;;;;;14.23;73.87;101302.63;5112025;27;50631;-72
2022/09/25 00:55:44;;;;;;;;;5.50;4.50;;;;;14.27;73.39;101306.19;5111911;27;49720;-71
2022/09/25 00:58:12;;;;;;;;;7.75;6.25;;;;;14.20;73.92;101307.88;5111813;27;49745;-71
2022/09/25 01:00:38;;;;;;;;;5.00;3.75;;;;;14.21;74.36;101317.56;5112181;27;49952;-70
2022/09/25 01:03:06;;;;;;;;;4.75;4.75;;;;;13.98;73.97;101298.72;5111627;27;50516;-72
2022/09/25 01:05:35;;;;;;;;;4.75;3.50;;;;;14.06;74.65;101313.78;5111612;27;49797;-70
2022/09/25 01:08:04;;;;;;;;;5.25;3.75;;;;;14.04;74.68;101317.28;5111915;27;49769;-71
2022/09/25 01:10:30;;;;;;;;;7.50;4.50;;;;;14.06;74.54;101311.16;5112021;27;49731;-70
2022/09/25 01:12:58;;;;;;;;;4.25;4.00;;;;;14.01;74.48;101316.38;5111551;27;50765;-71
2022/09/25 01:15:41;;;;;;;;;3.75;3.75;;;;;14.04;75.32;101321.69;5093030;27;49791;-70
2022/09/25 01:18:41;;;;;;;;;6.00;5.00;;;;;13.97;75.54;101318.06;5111589;27;49726;-70
2022/09/25 01:21:18;;;;;;;;;3.00;3.00;;;;;13.93;75.23;101320.63;5111799;27;49604;-73
2022/09/25 01:24:08;;;;;;;;;3.25;3.25;;;;;13.89;75.95;101317.03;5111493;27;49999;-78
2022/09/25 01:26:51;;;;;;;;;4.75;4.00;;;;;13.96;75.37;101320.66;5092918;27;50305;-74
2022/09/25 01:29:24;;;;;;;;;5.75;4.25;;;;;13.98;75.41;101311.91;5098144;27;50019;-76
2022/09/25 01:32:02;;;;;;;;;3.00;3.00;;;;;13.97;75.70;101314.53;5105269;27;49606;-73
2022/09/25 01:34:37;;;;;;;;;6.50;4.50;;;;;14.02;75.34;101311.09;5110829;27;50514;-74
2022/09/25 01:37:19;;;;;;;;;6.50;5.75;;;;;13.90;75.75;101292.44;5111263;27;49717;-75
2022/09/25 01:39:53;;;;;;;;;5.50;5.50;;;;;13.93;75.66;101312.72;5092810;27;50070;-71
2022/09/25 01:42:26;;;;;;;;;5.00;5.00;;;;;13.90;76.15;101310.94;5111624;27;49837;-74
2022/09/25 01:44:57;;;;;;;;;6.00;6.00;;;;;13.90;76.01;101313.56;5111268;27;50585;-71
2022/09/25 01:47:27;;;;;;;;;6.75;5.00;;;;;13.92;75.96;101303.91;5111267;27;49804;-70
2022/09/25 01:49:58;;;;;;;;;7.00;5.50;;;;;13.96;75.95;101304.84;5111135;27;49932;-76
2022/09/25 01:52:38;;;;;;;;;7.00;7.00;;;;;13.91;76.07;101301.25;5105443;27;49994;-70
2022/09/25 01:55:15;;;;;;;;;6.50;6.50;;;;;13.92;76.12;101295.09;5111044;27;49645;-81
2022/09/25 01:57:48;;;;;;;;;5.75;5.75;;;;;14.07;76.19;101308.53;5094509;27;50178;-80
2022/09/25 02:00:20;;;;;;;;;8.50;8.50;;;;;13.89;75.94;101288.00;5091526;27;49809;-78
2022/09/25 02:02:59;;;;;;;;;7.00;6.25;;;;;14.10;75.88;101311.22;5091591;27;50038;-77
2022/09/25 02:05:30;;;;;;;;;7.50;6.25;;;;;14.14;75.79;101323.59;5090978;27;49996;-82
2022/09/25 02:08:04;;;;;;;;;7.00;5.25;;;;;14.06;75.85;101300.59;5097967;27;49935;-80
2022/09/25 02:10:35;;;;;;;;;6.75;6.75;;;;;14.16;75.53;101313.06;5105062;27;49995;-70
2022/09/25 02:13:09;;;;;;;;;6.25;6.25;;;;;14.19;75.27;101307.84;5111172;27;49864;-82
2022/09/25 02:15:43;;;;;;;;;6.50;6.00;;;;;14.14;75.49;101307.75;5110883;27;49843;-78
2022/09/25 02:21:31;;;;;;;;;8.00;6.75;;;;;14.28;74.82;101321.16;5110977;27;49650;-75
2022/09/25 02:24:06;;;;;;;;;6.00;6.00;;;;;14.28;74.89;101318.50;5092436;27;49929;-77
2022/09/25 02:26:33;;;;;;;;;5.00;5.00;;;;;14.24;75.20;101322.88;5110531;27;49919;-78
2022/09/25 02:28:59;;;;;;;;;7.00;6.00;;;;;14.14;75.45;101301.59;5110554;27;49923;-77
2022/09/25 02:31:34;;;;;;;;;9.00;8.00;;;;;14.21;75.19;101319.31;5110606;27;49987;-71
2022/09/25 02:34:00;;;;;;;;;7.75;6.25;;;;;14.25;75.25;101327.28;5110688;27;49577;-81
2022/09/25 02:36:25;;;;;;;;;9.75;7.25;;;;;14.19;75.54;101319.28;5110545;27;50710;-78
2022/09/25 02:38:53;;;;;;;;;7.75;6.25;;;;;14.11;75.61;101317.41;5110587;27;50134;-75
2022/09/25 02:41:43;;;;;;;;;5.00;5.00;;;;;14.19;75.76;101324.56;5111887;27;49674;-79
2022/09/25 02:44:30;;;;;;;;;7.50;7.50;;;;;14.17;76.04;101331.56;5114448;27;49710;-79
2022/09/25 02:47:16;;;;;;;;;7.25;7.25;;;;;14.17;76.08;101326.28;5086625;27;49746;-78
2022/09/25 02:49:54;;;;;;;;;8.25;6.75;;;;;14.20;76.30;101330.75;5075686;27;49872;-70
2022/09/25 02:52:49;;;;;;;;;6.50;6.50;;;;;14.23;75.85;101325.50;5082773;27;50311;-76
2022/09/25 02:55:27;;;;;;;;;10.00;8.25;;;;;14.22;75.77;101319.31;5111283;27;49764;-75
2022/09/25 02:57:56;;;;;;;;;8.00;8.00;;;;;14.20;75.17;101317.53;5113293;27;51760;-77
2022/09/25 03:00:22;;;;;;;;;7.50;5.50;;;;;14.15;75.68;101329.78;5113630;27;49936;-75
2022/09/25 03:02:52;;;;;;;;;11.00;8.00;;;;;14.10;76.34;101332.34;5113649;27;49747;-73
2022/09/25 03:05:20;;;;;;;;;7.75;6.00;;;;;14.01;76.42;101319.91;5113813;27;50075;-77
2022/09/25 03:10:34;;;;;;;;;6.75;6.75;;;;;14.18;76.30;101332.44;5113752;27;49662;-70
2022/09/25 03:13:17;;;;;;;;;12.00;10.75;;;;;14.12;76.34;101333.25;5113821;27;49638;-74
2022/09/25 03:15:47;;;;;;;;;9.00;8.25;;;;;14.11;76.54;101334.13;5113971;27;49839;-77
2022/09/25 03:18:13;;;;;;;;;8.75;8.00;;;;;14.08;76.25;101334.06;5113425;27;50918;-74
2022/09/25 03:20:39;;;;;;;;;8.25;8.25;;;;;14.05;76.25;101339.28;5113051;27;49655;-71
2022/09/25 03:23:05;;;;;;;;;8.50;7.75;;;;;14.04;76.61;101343.69;5113366;27;49905;-74
2022/09/25 03:25:30;;;;;;;;;13.25;11.00;;;;;14.01;76.40;101341.00;5113776;27;49801;-78
2022/09/25 03:27:55;;;;;;;;;12.50;11.00;;;;;13.97;76.77;101347.09;5112796;27;65995;-75
2022/09/25 03:30:21;;;;;;;;;12.75;11.50;;;;;14.00;76.75;101348.91;5112884;27;63591;-75
2022/09/25 03:32:46;;;;;;;;;13.50;12.00;;;;;13.88;77.16;101349.56;5112957;27;58411;-73
2022/09/25 03:35:11;;;;;;;;;9.00;6.50;;;;;13.87;77.81;101349.56;5112670;27;53458;-71
2022/09/25 03:37:37;;;;;;;;;13.75;13.75;;;;;13.80;77.18;101339.75;5094093;27;67142;-71
2022/09/25 03:40:02;;;;;;;;;11.75;9.25;;;;;13.80;77.50;101342.38;5113121;27;49795;-79
2022/09/25 03:42:28;;;;;;;;;9.75;8.00;;;;;13.62;77.18;101325.41;5094979;27;49949;-80
2022/09/25 03:44:54;;;;;;;;;13.25;12.00;;;;;13.78;77.53;101350.28;5113475;27;49767;-77
2022/09/25 03:47:19;;;;;;;;;11.50;11.50;;;;;13.63;77.47;101340.38;5113111;27;49783;-82
2022/09/25 03:49:44;;;;;;;;;9.25;9.25;;;;;13.74;77.47;101356.38;5112300;27;64007;-75
2022/09/25 03:52:11;;;;;;;;;8.75;7.50;;;;;13.73;77.71;101358.13;5111941;27;63138;-81
2022/09/25 03:54:36;;;;;;;;;10.75;8.00;;;;;13.73;77.78;101358.13;5113088;27;49743;-74
2022/09/25 03:57:02;;;;;;;;;13.00;11.25;;;;;13.72;77.32;101347.56;5112700;27;50052;-70
2022/09/25 03:59:27;;;;;;;;;9.00;9.00;;;;;13.60;77.55;101327.09;5112667;27;49815;-82
2022/09/25 04:01:52;;;;;;;;;11.75;8.25;;;;;13.69;77.46;101347.50;5112405;27;61388;-75
2022/09/25 04:04:18;;;;;;;;;6.25;6.25;;;;;13.69;77.59;101348.38;5112856;27;49726;-82
2022/09/25 04:06:43;;;;;;;;;10.75;9.25;;;;;13.53;77.34;101322.59;5112544;27;50753;-81
2022/09/25 04:09:08;;;;;;;;;6.75;5.75;;;;;13.77;77.51;101358.19;5112811;27;49753;-82
2022/09/25 04:11:36;;;;;;;;;14.50;11.75;;;;;13.80;77.02;101355.59;5112731;27;49924;-79
2022/09/25 04:14:02;;;;;;;;;14.00;9.25;;;;;13.75;76.95;101356.41;5112936;27;49903;-78
2022/09/25 04:16:28;;;;;;;;;8.00;6.50;;;;;13.58;77.10;101342.03;5112431;27;50893;-79
2022/09/25 04:18:53;;;;;;;;;12.50;12.00;;;;;13.64;78.07;101354.44;5112181;27;49690;-77
2022/09/25 04:21:19;;;;;;;;;17.50;15.75;;;;;13.70;77.87;101365.09;5112618;27;49074;-84
2022/09/25 04:24:47;;;;;;;;;13.00;12.75;;;;;13.53;77.75;101340.19;5112812;27;49897;-73
2022/09/25 04:26:30;;;;;;;;;15.75;15.75;;;;;13.66;78.23;101365.91;5112179;27;50513;-70
2022/09/25 04:28:55;;;;;;;;;16.00;14.00;;;;;13.51;77.62;101331.34;5112075;27;51722;-75
2022/09/25 04:31:21;;;;;;;;;17.25;15.25;;;;;13.70;77.75;101363.38;5111915;27;59937;-80
2022/09/25 04:33:46;;;;;;;;;13.50;13.50;;;;;13.66;77.25;101360.63;5111784;27;49721;-80
2022/09/25 04:36:16;;;;;;;;;16.75;15.25;;;;;13.65;77.41;101362.38;5093470;27;50438;-81
2022/09/25 04:38:41;;;;;;;;;14.25;13.75;;;;;13.69;77.97;101360.69;5112289;27;49825;-77
2022/09/25 04:41:07;;;;;;;;;16.50;15.25;;;;;13.69;77.53;101358.03;5112282;27;49821;-79
2022/09/25 04:43:32;;;;;;;;;20.50;19.25;;;;;13.76;77.29;101370.47;5112447;27;49838;-70
2022/09/25 04:46:02;;;;;;;;;19.25;15.00;;;;;13.81;77.05;101367.94;5112068;27;49903;-70
2022/09/25 04:48:29;;;;;;;;;21.00;19.00;;;;;13.80;77.16;101366.13;5111681;27;50063;-78
2022/09/25 04:50:54;;;;;;;;;14.25;12.50;;;;;13.69;76.78;101372.13;5112918;27;49947;-76
2022/09/25 04:53:20;;;;;;;;;15.50;14.00;;;;;13.66;77.33;101373.81;5106948;27;49876;-72
2022/09/25 04:55:46;;;;;;;;;14.50;13.50;;;;;13.57;77.28;101360.47;5092308;27;49730;-77
2022/09/25 04:58:12;;;;;;;;;13.00;13.00;;;;;13.57;76.95;101378.94;5111097;27;49894;-80
2022/09/25 05:00:38;;;;;;;;;20.75;17.00;;;;;13.50;77.13;101371.75;5106304;27;49683;-79
2022/09/25 05:03:03;;;;;;;;;20.50;15.00;;;;;13.51;77.20;101392.00;5101548;27;49914;-74
2022/09/25 05:05:29;;;;;;;;;16.75;15.25;;;;;13.48;77.41;101379.66;5109800;27;50684;-72
2022/09/25 05:07:57;;;;;;;;;12.00;12.00;;;;;13.56;77.59;101390.34;5099101;27;50425;-71
2022/09/25 05:10:26;;;;;;;;;16.75;16.50;;;;;13.45;77.10;101369.94;5092188;27;49842;-74
2022/09/25 05:12:57;;;;;;;;;18.25;16.25;;;;;13.60;76.61;101387.78;5092475;27;49682;-71
2022/09/25 05:15:23;;;;;;;;;13.75;13.25;;;;;13.51;76.51;101362.97;5094926;27;50673;-70
2022/09/25 05:17:48;;;;;;;;;8.50;8.50;;;;;13.51;76.35;101385.00;5093071;27;49785;-77
2022/09/25 05:20:14;;;;;;;;;17.00;11.50;;;;;13.31;76.39;101371.41;5073257;27;49805;-70
2022/09/25 05:22:40;;;;;;;;;11.75;9.75;;;;;13.19;76.64;101363.28;5103891;27;49973;-74
2022/09/25 05:25:06;;;;;;;;;11.00;11.00;;;;;13.16;76.75;101366.72;5110611;27;74042;-80
2022/09/25 05:27:33;;;;;;;;;17.25;15.50;;;;;13.24;76.86;101387.09;5111417;27;49873;-71
2022/09/25 05:29:58;;;;;;;;;14.50;12.25;;;;;13.19;76.92;101392.28;5101411;27;49868;-72
2022/09/25 05:32:24;;;;;;;;;17.00;11.75;;;;;13.13;77.74;101385.13;5092754;27;50112;-76
2022/09/25 05:34:49;;;;;;;;;7.00;7.00;;;;;13.10;76.74;101382.38;5099567;27;50299;-75
2022/09/25 05:37:15;;;;;;;;;12.25;10.25;;;;;13.06;77.26;101393.75;5082863;27;52865;-77
2022/09/25 05:39:40;;;;;;;;;11.75;10.75;;;;;12.92;77.20;101383.75;5096312;27;49809;-71
2022/09/25 05:42:05;;;;;;;;;11.50;8.50;;;;;12.94;77.90;101401.41;5104709;27;52518;-71
2022/09/25 05:44:31;;;;;;;;;8.75;7.75;;;;;12.93;77.86;101403.97;5090650;27;66525;-73
2022/09/25 05:46:57;;;;;;;;;7.50;7.50;;;;;12.92;77.42;101408.34;5102056;27;49937;-72
2022/09/25 05:49:22;;;;;;;;;6.00;6.00;;;;;12.77;77.81;101393.13;5096743;27;49866;-74
2022/09/25 05:51:47;;;;;;;;;12.50;11.50;;;;;12.77;77.55;101413.31;5105986;27;51721;-72
2022/09/25 05:54:13;;;;;;;;;9.25;7.00;;;;;12.79;77.81;101432.66;5100549;27;50310;-70
2022/09/25 05:56:38;;;;;;;;;10.00;7.25;;;;;12.77;77.94;101434.38;5099041;27;49896;-71
2022/09/25 05:59:03;;;;;;;;;9.25;6.50;;;;;12.60;77.70;101410.28;5097703;27;49817;-70
2022/09/25 06:01:29;;;;;;;;;7.25;4.75;;;;;12.70;77.68;101435.09;5094383;27;59475;-73
2022/09/25 06:03:54;;;;;;;;;6.00;5.00;;;;;12.34;78.06;101370.19;5094260;27;50598;-76
2022/09/25 06:06:20;;;;;;;;;11.50;6.00;;;;;12.45;78.15;101413.47;5101387;27;67781;-70
2022/09/25 06:08:45;;;;;;;;;5.50;5.00;;;;;12.57;78.12;101437.47;5093186;27;50459;-71
2022/09/25 06:11:10;;;;;;;;;5.75;5.25;;;;;12.56;78.04;101435.69;5106037;27;49917;-70
2022/09/25 06:13:37;;;;;;;;;6.50;6.50;;;;;12.63;77.75;101435.81;5097080;27;65770;-70
2022/09/25 06:16:04;;;;;;;;;6.50;6.25;;;;;12.62;77.52;101440.19;5095455;27;49696;-70
2022/09/25 06:18:31;;;;;;;;;7.00;7.00;;;;;12.53;77.30;101426.78;5102280;27;50111;-71
2022/09/25 06:21:02;;;;;;;;;7.75;7.00;;;;;12.54;77.29;101442.63;5101316;27;49828;-71
2022/09/25 06:23:28;;;;;;;;;7.25;6.25;;;;;12.57;77.10;101449.75;5105665;27;49804;-74
2022/09/25 06:25:53;;;;;;;;;8.50;7.50;;;;;12.50;77.33;101445.16;5078618;27;49939;-71
2022/09/25 06:28:19;;;;;;;;;7.50;7.00;;;;;12.33;77.50;101427.22;5094678;27;50284;-71
2022/09/25 06:30:44;;;;;;;;;4.75;4.25;;;;;12.40;77.42;101451.06;5095253;27;50057;-76
2022/09/25 06:33:11;;;;;;;;;6.75;6.75;;;;;12.29;77.85;101459.59;5095858;27;50438;-75
2022/09/25 06:35:55;;;;;;;;;10.00;10.00;;;;;12.26;77.83;101451.63;5102747;27;49738;-81
2022/09/25 06:38:20;;;;;;;;;4.50;4.50;;;;;12.23;77.86;101451.53;5110211;27;49826;-71
2022/09/25 06:40:45;;;;;;;;;5.50;5.50;;;;;12.12;77.94;101426.69;5119138;27;49734;-77
2022/09/25 06:43:14;;;;;;;;;6.00;6.00;;;;;12.26;78.10;101449.00;5127091;27;49899;-71
2022/09/25 06:45:41;;;;;;;;;5.00;5.00;;;;;12.31;77.58;101451.72;5099464;27;49703;-72
2022/09/25 06:48:09;;;;;;;;;2.75;2.75;;;;;12.27;77.49;101442.00;5103934;27;50083;-73
2022/09/25 06:50:39;;;;;;;;;6.75;5.25;;;;;12.29;77.11;101445.56;5098789;27;50069;-75
2022/09/25 06:53:05;;;;;;;;;6.25;4.75;;;;;12.38;77.34;101443.13;5103280;27;50414;-78
2022/09/25 06:55:31;;;;;;;;;5.75;5.75;;;;;12.32;76.55;101430.69;5101124;27;49813;-79
2022/09/25 06:57:57;;;;;;;;;8.50;5.50;;;;;12.44;76.72;101445.00;5108703;27;49935;-77
2022/09/25 07:00:22;;;;;;;;;5.00;5.00;;;;;12.44;76.32;101447.66;5116324;27;49776;-75
2022/09/25 07:05:33;;;;;;;;;8.00;5.75;;;;;11.95;76.67;101355.22;5098423;27;49963;-75
2022/09/25 07:07:58;;;;;;;;;6.00;4.75;;;;;12.47;76.22;101450.38;5096097;27;50122;-71
2022/09/25 07:10:23;;;;;;;;;3.25;3.25;;;;;12.50;76.52;101463.59;5113008;27;50068;-72
2022/09/25 07:12:49;;;;;;;;;5.50;5.00;;;;;12.56;76.13;101462.03;5113894;27;49731;-73
2022/09/25 07:15:14;;;;;;;;;4.50;3.50;;;;;12.45;75.85;101436.25;5117866;27;49912;-71
2022/09/25 07:17:46;;;;;;;;;6.00;5.50;;;;;12.65;75.83;101457.81;5109635;27;49766;-72
2022/09/25 07:20:14;;;;;;;;;5.25;5.25;;;;;12.74;75.57;101448.38;5094024;27;49940;-83
2022/09/25 07:22:40;;;;;;;;;4.00;4.00;;;;;12.65;75.42;101439.38;5098346;27;50304;-70
2022/09/25 07:25:07;;;;;;;;;3.50;3.50;;;;;12.76;75.62;101456.31;5105119;27;50005;-71
2022/09/25 07:27:33;;;;;;;;;7.25;3.75;;;;;12.74;74.80;101444.84;5105724;27;49722;-70
2022/09/25 07:29:58;;;;;;;;;6.25;4.50;;;;;12.84;75.01;101453.00;5111996;27;49977;-80
2022/09/25 07:32:23;;;;;;;;;7.25;5.00;;;;;12.92;74.74;101462.81;5112870;27;49917;-82
2022/09/25 07:34:49;;;;;;;;;5.25;5.25;;;;;12.95;75.04;101468.16;5117957;27;50112;-69
2022/09/25 07:37:16;;;;;;;;;5.75;4.00;;;;;13.01;75.86;101465.66;5093493;27;49753;-71
2022/09/25 07:39:41;;;;;;;;;2.75;2.75;;;;;12.96;75.03;101469.94;5111502;27;49990;-72
2022/09/25 07:42:07;;;;;;;;;1.00;1.00;;;;;12.83;74.66;101451.19;5095177;27;50513;-72
2022/09/25 07:44:32;;;;;;;;;8.50;4.00;;;;;13.05;74.74;101473.69;5113156;27;49785;-71
2022/09/25 07:46:59;;;;;;;;;2.00;2.00;;;;;13.00;74.59;101472.66;5105576;27;49811;-72
2022/09/25 07:49:25;;;;;;;;;5.75;2.75;;;;;13.00;73.83;101455.97;5099347;27;50023;-67
2022/09/25 07:51:51;;;;;;;;;3.50;1.75;;;;;13.23;73.15;101462.69;5109043;27;72936;-74
2022/09/25 07:54:16;;;;;;;;;5.50;2.00;;;;;13.29;73.16;101454.88;5103287;27;50020;-74
2022/09/25 07:56:41;;;;;;;;;2.00;1.25;;;;;13.27;72.77;101434.63;5100032;27;49553;-69
2022/09/25 07:59:07;;;;;;;;;3.00;3.00;;;;;13.48;72.62;101464.06;5093222;27;49514;-70
2022/09/25 08:01:32;;;;;;;;;2.00;2.00;;;;;13.58;71.37;101466.00;5106615;27;49860;-78
2022/09/25 08:03:58;;;;;;;;;2.00;1.00;;;;;13.68;70.90;101469.72;5112512;27;60755;-69
2022/09/25 08:06:23;;;;;;;;;1.75;1.75;;;;;13.66;71.15;101460.91;5112943;27;49689;-74
2022/09/25 08:08:48;;;;;;;;;2.00;2.00;;;;;13.63;70.75;101442.38;5104137;27;49790;-79
2022/09/25 08:11:15;;;;;;;;;2.00;2.00;;;;;13.84;70.41;101461.25;5092488;27;64639;-68
2022/09/25 08:13:42;;;;;;;;;3.50;2.75;;;;;13.90;69.90;101463.13;5103136;27;49800;-72
2022/09/25 08:16:12;;;;;;;;;1.00;1.00;;;;;13.82;69.28;101451.53;5098168;27;49621;-72
2022/09/25 08:18:44;;;;;;;;;2.50;2.25;;;;;13.95;69.45;101472.88;5099618;27;49889;-72
2022/09/25 08:21:13;;;;;;;;;1.00;1.00;;;;;14.00;68.92;101481.78;5097487;27;50571;-70
2022/09/25 08:23:39;;;;;;;;;2.00;2.00;;;;;14.06;68.36;101481.00;5107456;27;50043;-75
2022/09/25 08:26:05;;;;;;;;;1.50;1.50;;;;;13.72;69.08;101411.78;5091300;27;49752;-72
2022/09/25 08:28:30;;;;;;;;;2.00;2.00;;;;;14.17;68.86;101473.25;5092418;27;50056;-71
2022/09/25 08:31:03;;;;;;;;;1.50;1.50;;;;;14.22;67.98;101479.53;5091827;27;50407;-72
2022/09/25 08:33:29;;;;;;;;;3.25;3.00;;;;;14.16;67.51;101461.81;5093652;27;49986;-69
2022/09/25 08:35:59;;;;;;;;;0.00;0.00;;;;;14.24;67.33;101468.13;5089781;27;50018;-68
2022/09/25 08:38:25;;;;;;;;;4.50;1.25;;;;;14.26;67.66;101470.78;5099239;27;49677;-73
2022/09/25 08:41:00;;;;;;;;;1.00;1.00;;;;;14.38;67.20;101468.38;5094143;27;51231;-68
2022/09/25 08:43:26;;;;;;;;;3.25;2.00;;;;;14.45;67.42;101478.19;5110911;27;49997;-72
2022/09/25 08:49:01;;;;;;;;;5.50;1.50;;;;;14.53;66.83;101463.34;5111670;27;49781;-68
2022/09/25 08:51:36;;;;;;;;;2.50;1.50;;;;;14.68;66.37;101473.28;5106910;27;49975;-68
2022/09/25 08:54:02;;;;;;;;;2.00;2.00;;;;;14.69;65.84;101477.69;5099353;27;49820;-67
2022/09/25 08:56:31;;;;;;;;;0.00;0.00;;;;;14.72;64.71;101474.19;5093773;27;49888;-68
2022/09/25 08:59:15;;;;;;;;;1.00;1.00;;;;;14.74;62.75;101478.63;5091350;27;49724;-70
2022/09/25 09:01:45;;;;;;;;;1.00;1.00;;;;;14.76;64.16;101468.97;5089232;27;50673;-69
2022/09/25 09:04:25;;;;;;;;;1.25;1.00;;;;;14.82;63.66;101476.13;5091986;27;50014;-67
2022/09/25 09:06:57;;;;;;;;;0.00;0.00;;;;;14.77;62.65;101454.03;5109871;27;49642;-76
2022/09/25 09:09:30;;;;;;;;;1.00;1.00;;;;;14.87;62.43;101464.75;5108190;27;49430;-77
2022/09/25 09:12:28;;;;;;;;;1.50;0.00;;;;;14.73;62.34;101431.03;5109398;27;50172;-76
2022/09/25 09:15:05;;;;;;;;;1.50;1.00;;;;;14.72;61.43;101426.63;5109260;27;49494;-78
2022/09/25 09:17:40;;;;;;;;;1.00;1.00;;;;;15.08;60.08;101474.75;5108709;27;49797;-73
2022/09/25 09:20:15;;;;;;;;;3.75;1.00;;;;;15.03;60.60;101460.56;5110437;27;49456;-79
2022/09/25 09:22:46;;;;;;;;;1.00;1.00;;;;;15.16;60.39;101478.38;5128608;27;50322;-78
2022/09/25 09:25:27;;;;;;;;;2.25;2.25;;;;;15.05;59.70;101460.56;5115717;27;50092;-78
2022/09/25 09:28:17;;;;;;;;;2.75;0.00;;;;;14.96;60.03;101436.66;5114570;27;49377;-78
2022/09/25 09:30:58;;;;;;;;;2.00;2.00;;;;;15.25;59.66;101485.56;5097777;27;49841;-76
2022/09/25 09:33:50;;;;;;;;;0.00;0.00;;;;;15.29;60.22;101474.13;5098898;27;50890;-76
2022/09/25 09:36:24;;;;;;;;;1.00;1.00;;;;;15.33;59.06;101475.03;5099896;27;49656;-78
2022/09/25 09:39:18;;;;;;;;;2.25;0.25;;;;;15.34;59.40;101471.53;5122264;27;49683;-75
2022/09/25 09:42:08;;;;;;;;;3.25;0.00;;;;;15.34;59.49;101468.88;5118859;27;49819;-82
2022/09/25 09:45:08;;;;;;;;;2.00;2.00;;;;;15.44;59.13;101481.34;5111312;27;50629;-77
2022/09/25 09:47:41;;;;;;;;;2.00;1.00;;;;;15.51;58.32;101469.09;5119661;27;49725;-71
2022/09/25 09:50:19;;;;;;;;;0.00;0.00;;;;;15.48;57.32;101485.84;5111471;27;49957;-78
2022/09/25 09:52:50;;;;;;;;;0.75;0.75;;;;;15.46;57.73;101477.00;5116469;27;50035;-72
2022/09/25 09:55:21;;;;;;;;;1.25;1.25;;;;;15.58;57.84;101473.59;5121358;27;49660;-81
2022/09/25 09:57:50;;;;;;;;;1.00;1.00;;;;;15.43;57.84;101442.53;5119123;27;49668;-68
2022/09/25 10:00:20;;;;;;;;;2.00;1.50;;;;;15.71;57.89;101468.47;5127717;27;49792;-72
2022/09/25 10:03:03;;;;;;;;;2.50;0.50;;;;;15.81;57.15;101476.53;5124736;27;49666;-71
2022/09/25 10:05:36;;;;;;;;;1.00;1.00;;;;;15.83;56.32;101470.41;5106793;27;50066;-68
2022/09/25 10:08:02;;;;;;;;;2.00;1.00;;;;;15.86;56.17;101462.47;5106112;27;49873;-67
2022/09/25 10:10:46;;;;;;;;;2.25;2.00;;;;;15.96;55.54;101464.34;5102014;27;49716;-74
2022/09/25 10:13:23;;;;;;;;;1.75;0.00;;;;;16.01;53.43;101467.03;5121724;27;49546;-67
2022/09/25 10:15:51;;;;;;;;;0.00;0.00;;;;;16.03;54.14;101463.53;5110247;27;50961;-73
2022/09/25 10:18:18;;;;;;;;;1.25;1.00;;;;;16.10;53.74;101455.63;5128280;27;49820;-68
2022/09/25 10:20:58;;;;;;;;;0.25;0.00;;;;;15.94;53.75;101423.72;5128023;27;49757;-67
2022/09/25 10:23:37;;;;;;;;;2.00;1.25;;;;;16.10;53.19;101456.53;5129493;27;49551;-72
2022/09/25 10:26:24;;;;;;;;;1.75;1.50;;;;;16.25;53.17;101454.03;5128434;27;49965;-68
2022/09/25 10:28:49;;;;;;;;;3.00;2.75;;;;;16.35;52.76;101462.94;5128877;27;49280;-68
2022/09/25 10:31:17;;;;;;;;;0.50;0.50;;;;;16.36;50.56;101453.22;5126636;27;49419;-67
2022/09/25 10:33:58;;;;;;;;;1.75;1.00;;;;;16.36;50.78;101440.84;5119937;27;50372;-74
2022/09/25 10:36:48;;;;;;;;;0.00;0.00;;;;;16.44;50.37;101435.63;5107411;27;50397;-73
2022/09/25 10:39:31;;;;;;;;;0.00;0.00;;;;;16.39;50.16;101421.44;5108422;27;49456;-75
2022/09/25 10:41:59;;;;;;;;;0.75;0.00;;;;;16.58;49.04;101447.19;5108648;27;49319;-73
2022/09/25 10:44:33;;;;;;;;;0.00;0.00;;;;;16.56;48.02;101436.59;5111032;27;49474;-79
2022/09/25 10:50:18;;;;;;;;;1.75;1.00;;;;;16.51;48.22;101425.09;5123042;27;49707;-77
2022/09/25 10:52:51;;;;;;;;;0.00;0.00;;;;;16.72;47.95;101437.63;5136740;27;49744;-72
2022/09/25 10:55:26;;;;;;;;;0.00;0.00;;;;;16.75;47.68;101437.63;5117433;27;50023;-73
2022/09/25 10:58:08;;;;;;;;;0.00;0.00;;;;;16.81;47.27;101437.69;5121979;27;50975;-75
2022/09/25 11:00:57;;;;;;;;;0.50;0.00;;;;;16.86;47.46;101430.63;5108572;27;49699;-79
2022/09/25 11:03:46;;;;;;;;;1.00;1.00;;;;;16.88;47.73;101439.47;5116578;27;49595;-76
2022/09/25 11:06:19;;;;;;;;;0.00;0.00;;;;;16.82;48.22;101412.06;5102440;27;49859;-74
2022/09/25 11:08:48;;;;;;;;;0.00;0.00;;;;;17.00;47.49;101437.78;5109448;27;51333;-73
2022/09/25 11:11:25;;;;;;;;;0.00;0.00;;;;;16.98;46.75;101435.09;5110739;27;49610;-74
2022/09/25 11:13:54;;;;;;;;;0.00;0.00;;;;;16.78;46.02;101396.97;5106438;27;49864;-76
2022/09/25 11:16:20;;;;;;;;;0.00;0.00;;;;;16.89;46.40;101400.59;5107448;27;49779;-76
2022/09/25 11:18:49;;;;;;;;;0.00;0.00;;;;;17.14;45.66;101441.38;5130951;27;49890;-76
2022/09/25 11:21:41;;;;;;;;;1.00;1.00;;;;;16.88;46.01;101394.38;5114409;27;49874;-75
2022/09/25 11:24:25;;;;;;;;;0.00;0.00;;;;;17.27;46.20;101437.00;5108911;27;49868;-79
2022/09/25 11:26:59;;;;;;;;;0.00;0.00;;;;;17.15;44.63;101424.56;5111981;27;49366;-74
2022/09/25 11:29:47;;;;;;;;;0.00;0.00;;;;;17.31;43.75;101442.34;5111795;27;49897;-78
2022/09/25 11:32:19;;;;;;;;;0.00;0.00;;;;;17.20;44.90;101414.88;5114645;27;49477;-85
2022/09/25 11:35:05;;;;;;;;;1.00;1.00;;;;;17.37;45.31;101422.88;5111468;27;49253;-76
2022/09/25 11:37:40;;;;;;;;;1.00;0.00;;;;;17.29;45.59;101392.81;5110811;27;49241;-71
2022/09/25 11:43:24;;;;;;;;;0.75;0.00;;;;;17.42;44.90;101410.53;5124374;27;49692;-78
2022/09/25 11:45:56;;;;;;;;;0.25;0.25;;;;;17.27;44.30;101373.31;5130187;27;49389;-78
2022/09/25 11:48:53;;;;;;;;;0.25;0.00;;;;;17.78;44.67;101441.63;5108113;27;49931;-74
2022/09/25 11:51:34;;;;;;;;;0.00;0.00;;;;;17.84;45.44;101431.00;5098981;27;49714;-72
2022/09/25 11:54:21;;;;;;;;;4.00;4.00;;;;;17.96;45.61;101430.16;5100139;27;49976;-73
2022/09/25 11:56:56;;;;;;;;;3.00;3.00;;;;;18.02;43.44;101424.84;5110624;27;49873;-71